Time;durP1;ratioP1;P1;durP2;ratioP2;P2;SDS_P1;SDS_P2;PMS_P1;PMS_P2;Temp;Humidity;BMP_temperature;BMP_pressure;BME280_temperature;BME280_humidity;BME280_pressure;Samples;Min_cycle;Max_cycle;Signal;HPM_P1;HPM_P2
2024/01/17 00:00:11;;;;;;;15.40;5.47;;;;;;;4.00;55.92;100156.66;4947620;29;20047;-66
2024/01/17 00:02:39;;;;;;;8.85;5.03;;;;;;;4.00;55.84;100154.81;4941454;29;20040;-66
2024/01/17 00:05:10;;;;;;;10.52;5.50;;;;;;;4.00;55.86;100160.13;4947169;29;20043;-66
2024/01/17 00:07:38;;;;;;;9.30;5.03;;;;;;;4.00;55.74;100161.97;4946759;29;20499;-66
2024/01/17 00:10:07;;;;;;;9.63;5.60;;;;;;;3.99;56.19;100157.69;4944565;29;20078;-66
2024/01/17 00:12:35;;;;;;;11.23;5.13;;;;;;;3.99;55.81;100153.19;4945959;29;20048;-66
2024/01/17 00:15:04;;;;;;;10.27;4.90;;;;;;;3.98;56.26;100151.53;4946169;29;20078;-66
2024/01/17 00:17:32;;;;;;;8.38;5.13;;;;;;;3.96;55.61;100153.56;4940837;29;20055;-66
2024/01/17 00:19:59;;;;;;;9.35;5.95;;;;;;;3.97;55.69;100141.09;4938631;29;20051;-66
2024/01/17 00:22:29;;;;;;;11.85;5.40;;;;;;;3.97;56.03;100133.94;4944501;29;20047;-66
2024/01/17 00:24:56;;;;;;;9.45;5.07;;;;;;;3.97;55.91;100133.13;4945883;29;20051;-66
2024/01/17 00:27:26;;;;;;;10.73;4.97;;;;;;;3.96;55.78;100136.81;4945686;29;20060;-66
2024/01/17 00:29:57;;;;;;;10.63;5.80;;;;;;;3.92;55.57;100123.06;4946537;29;20051;-67
2024/01/17 00:32:26;;;;;;;9.80;5.07;;;;;;;3.94;55.39;100118.38;4944676;29;20119;-66
2024/01/17 00:34:54;;;;;;;9.75;5.05;;;;;;;3.90;55.99;100109.16;4944699;29;20082;-66
2024/01/17 00:37:22;;;;;;;11.52;6.15;;;;;;;3.92;55.36;100117.75;4945932;29;20051;-66
2024/01/17 00:39:51;;;;;;;7.53;4.78;;;;;;;3.91;55.53;100114.28;4945299;29;20055;-66
2024/01/17 00:42:19;;;;;;;11.27;5.57;;;;;;;3.92;55.71;100117.75;4933882;29;20429;-66
2024/01/17 00:44:47;;;;;;;7.65;4.28;;;;;;;3.90;56.13;100107.31;4946112;29;20075;-66
2024/01/17 00:47:15;;;;;;;9.20;5.05;;;;;;;3.91;55.84;100100.19;4945307;28;20127;-66
2024/01/17 00:49:42;;;;;;;8.07;5.00;;;;;;;3.90;55.90;100096.69;4946692;29;20102;-66
2024/01/17 00:52:10;;;;;;;12.63;4.90;;;;;;;3.88;55.63;100085.44;4940371;29;20492;-66
2024/01/17 00:54:38;;;;;;;9.05;5.22;;;;;;;3.87;56.49;100075.81;4945112;29;20063;-66
2024/01/17 00:57:07;;;;;;;8.25;4.78;;;;;;;3.85;55.71;100061.91;4945233;29;20418;-66
2024/01/17 00:59:35;;;;;;;10.90;4.47;;;;;;;3.85;55.65;100059.25;4944373;29;20071;-66
2024/01/17 01:02:04;;;;;;;11.63;5.22;;;;;;;3.85;55.78;100061.91;4940885;29;20111;-66
2024/01/17 01:04:31;;;;;;;11.45;5.32;;;;;;;3.85;55.39;100063.75;4929487;29;20056;-66
2024/01/17 01:06:59;;;;;;;13.30;5.28;;;;;;;3.83;55.92;100063.94;4945937;29;20052;-66
2024/01/17 01:09:28;;;;;;;9.93;4.43;;;;;;;3.83;55.99;100055.97;4945832;29;20059;-66
2024/01/17 01:11:56;;;;;;;13.02;4.78;;;;;;;3.82;55.73;100045.53;4945132;29;20055;-66
2024/01/17 01:14:25;;;;;;;9.70;4.88;;;;;;;3.83;56.61;100047.19;4945064;29;20127;-66
2024/01/17 01:16:53;;;;;;;10.73;4.68;;;;;;;3.82;56.36;100041.03;4945382;29;20073;-66
2024/01/17 01:19:21;;;;;;;10.00;4.70;;;;;;;3.83;56.48;100036.56;4944941;29;20119;-66
2024/01/17 01:21:49;;;;;;;10.13;4.93;;;;;;;3.83;56.07;100031.22;4944322;29;20116;-66
2024/01/17 01:24:16;;;;;;;8.85;4.80;;;;;;;3.81;55.80;100023.47;4944151;29;20473;-66
2024/01/17 01:26:44;;;;;;;9.52;4.72;;;;;;;3.80;56.15;100021.00;4937158;29;20052;-66
2024/01/17 01:29:12;;;;;;;11.57;5.53;;;;;;;3.79;56.21;100016.69;4942602;29;20056;-66
2024/01/17 01:31:41;;;;;;;10.70;5.65;;;;;;;3.77;55.71;100022.22;4944946;29;20056;-66
2024/01/17 01:34:09;;;;;;;10.85;4.95;;;;;;;3.77;55.75;100016.09;4942118;29;20106;-66
2024/01/17 01:36:37;;;;;;;9.77;5.15;;;;;;;3.77;56.51;100021.41;4945613;29;20051;-66
2024/01/17 01:39:05;;;;;;;16.38;5.45;;;;;;;3.76;55.59;100020.56;4945437;29;20071;-67
2024/01/17 01:41:33;;;;;;;9.40;5.28;;;;;;;3.77;55.91;100016.91;4945160;29;20130;-67
2024/01/17 01:44:01;;;;;;;12.10;5.13;;;;;;;3.75;55.52;100018.94;4944770;29;20048;-67
2024/01/17 01:46:30;;;;;;;10.27;5.57;;;;;;;3.77;55.49;100018.75;4951324;29;20059;-67
2024/01/17 01:49:00;;;;;;;12.15;5.50;;;;;;;3.77;55.70;100011.59;4952695;29;20048;-67
2024/01/17 01:51:29;;;;;;;9.70;5.00;;;;;;;3.75;55.74;100007.47;4962412;29;20597;-67
2024/01/17 01:54:00;;;;;;;12.38;5.47;;;;;;;3.73;56.18;100010.34;4962183;29;20043;-67
2024/01/17 01:56:32;;;;;;;12.48;5.28;;;;;;;3.74;56.02;100006.66;4964791;29;20055;-67
2024/01/17 01:59:01;;;;;;;13.35;5.45;;;;;;;3.73;56.21;100005.03;4963593;29;20057;-67
2024/01/17 02:01:30;;;;;;;12.15;4.90;;;;;;;3.73;55.68;100007.69;4964372;29;20062;-66
2024/01/17 02:04:01;;;;;;;9.52;5.18;;;;;;;3.73;55.28;99998.88;4961143;29;20047;-68
2024/01/17 02:06:31;;;;;;;9.40;5.35;;;;;;;3.73;55.80;99996.22;4964740;29;20181;-67
2024/01/17 02:09:01;;;;;;;11.00;5.85;;;;;;;3.71;55.36;99996.44;4963749;29;20326;-66
2024/01/17 02:11:30;;;;;;;8.50;5.13;;;;;;;3.72;55.92;99981.31;4965328;29;20047;-66
2024/01/17 02:13:58;;;;;;;9.23;5.65;;;;;;;3.70;55.82;99975.38;4950046;29;20069;-67
2024/01/17 02:16:26;;;;;;;14.93;5.80;;;;;;;3.71;55.30;99982.31;4945384;29;20422;-67
2024/01/17 02:18:54;;;;;;;9.98;5.43;;;;;;;3.71;55.31;99979.66;4958209;29;20050;-66
2024/01/17 02:21:26;;;;;;;11.10;5.88;;;;;;;3.67;55.60;99965.16;4963671;28;20476;-67
2024/01/17 02:23:55;;;;;;;11.32;5.50;;;;;;;3.69;55.40;99965.75;4961901;29;20079;-66
2024/01/17 02:26:23;;;;;;;11.35;5.18;;;;;;;3.68;55.47;99959.63;4957496;29;20055;-66
2024/01/17 02:28:50;;;;;;;11.93;5.63;;;;;;;3.68;55.11;99954.31;4963694;29;20047;-66
2024/01/17 02:31:18;;;;;;;9.45;4.95;;;;;;;3.69;55.29;99949.81;4964818;28;20083;-67
2024/01/17 02:33:46;;;;;;;12.90;5.88;;;;;;;3.67;56.13;99939.38;4959770;29;20048;-66
2024/01/17 02:36:14;;;;;;;10.05;5.25;;;;;;;3.67;55.29;99942.03;4968399;29;20085;-66
2024/01/17 02:38:42;;;;;;;10.50;4.72;;;;;;;3.58;55.66;99922.00;4967251;29;20071;-67
2024/01/17 02:41:11;;;;;;;11.88;5.45;;;;;;;3.66;55.82;99931.63;4967995;29;20504;-67
2024/01/17 02:43:39;;;;;;;11.00;5.45;;;;;;;3.65;56.17;99922.81;4966150;29;20048;-67
2024/01/17 02:46:07;;;;;;;10.98;5.60;;;;;;;3.65;55.42;99920.16;4966872;28;20061;-67
2024/01/17 02:48:35;;;;;;;8.60;5.03;;;;;;;3.66;55.51;99915.69;4962829;29;20449;-67
2024/01/17 02:51:03;;;;;;;9.18;4.70;;;;;;;3.64;55.67;99910.56;4966709;29;20126;-67
2024/01/17 02:53:31;;;;;;;9.68;4.65;;;;;;;3.65;55.39;99904.22;4957940;29;20150;-66
2024/01/17 02:55:59;;;;;;;9.25;4.88;;;;;;;3.63;55.25;99900.97;4965071;29;20067;-67
2024/01/17 02:58:28;;;;;;;9.43;4.82;;;;;;;3.63;55.73;99892.16;4965721;29;20493;-67
2024/01/17 03:00:56;;;;;;;9.25;5.25;;;;;;;3.63;55.66;99886.84;4966969;29;20054;-69
2024/01/17 03:03:24;;;;;;;12.20;5.15;;;;;;;3.61;55.49;99879.09;4967493;29;20476;-67
2024/01/17 03:05:51;;;;;;;7.72;4.68;;;;;;;3.58;55.47;99874.16;4966815;29;20461;-67
2024/01/17 03:08:19;;;;;;;8.80;5.15;;;;;;;3.58;55.22;99872.34;4966040;29;20051;-67
2024/01/17 03:10:47;;;;;;;10.23;5.07;;;;;;;3.58;55.56;99876.81;4967557;29;20075;-67
2024/01/17 03:13:15;;;;;;;7.85;4.78;;;;;;;3.57;55.58;99867.22;4966428;29;20489;-67
2024/01/17 03:15:44;;;;;;;8.88;5.22;;;;;;;3.57;56.02;99870.69;4957446;29;20051;-67
2024/01/17 03:18:13;;;;;;;9.27;5.22;;;;;;;3.56;55.59;99871.72;4967180;29;20082;-67
2024/01/17 03:20:42;;;;;;;9.38;4.68;;;;;;;3.56;55.42;99869.06;4967321;29;20054;-67
2024/01/17 03:23:10;;;;;;;7.43;4.80;;;;;;;3.57;55.12;99869.88;4967314;29;20055;-67
2024/01/17 03:25:37;;;;;;;11.40;4.78;;;;;;;3.54;55.87;99857.81;4960632;29;20043;-67
2024/01/17 03:28:05;;;;;;;11.75;5.60;;;;;;;3.53;55.85;99858.00;4967005;29;20055;-67
2024/01/17 03:30:34;;;;;;;9.32;5.47;;;;;;;3.54;55.58;99852.50;4961982;29;20090;-67
2024/01/17 03:33:03;;;;;;;8.07;4.20;;;;;;;3.51;54.97;99844.94;4966055;29;20047;-67
2024/01/17 03:35:31;;;;;;;10.20;5.05;;;;;;;3.51;55.47;99842.28;4960708;29;20079;-67
2024/01/17 03:37:59;;;;;;;11.88;5.45;;;;;;;3.50;55.34;99835.31;4966624;29;20461;-67
2024/01/17 03:40:27;;;;;;;9.68;4.82;;;;;;;3.51;55.70;99822.84;4966240;29;20527;-67
2024/01/17 03:42:55;;;;;;;9.25;4.88;;;;;;;3.49;55.42;99822.25;4965686;28;20110;-67
2024/01/17 03:45:23;;;;;;;10.30;4.95;;;;;;;3.48;54.80;99805.50;4963975;29;20111;-67
2024/01/17 03:47:51;;;;;;;10.20;4.53;;;;;;;3.44;54.76;99793.66;4965137;29;20121;-67
2024/01/17 03:50:20;;;;;;;9.93;4.70;;;;;;;3.46;55.64;99788.97;4964896;29;20111;-67
2024/01/17 03:52:48;;;;;;;10.95;4.43;;;;;;;3.46;55.42;99782.84;4966235;29;20094;-67
2024/01/17 03:55:16;;;;;;;11.57;5.20;;;;;;;3.44;55.53;99780.38;4965754;29;20047;-67
2024/01/17 03:57:44;;;;;;;11.88;5.22;;;;;;;3.42;55.20;99771.81;4962777;29;20504;-67
2024/01/17 04:00:12;;;;;;;10.45;5.15;;;;;;;3.42;55.72;99771.81;4965103;29;20051;-67
2024/01/17 04:02:40;;;;;;;7.82;4.55;;;;;;;3.42;55.34;99765.66;4966532;29;20062;-67
2024/01/17 04:05:08;;;;;;;10.23;4.88;;;;;;;3.41;55.03;99756.88;4964441;29;20098;-67
2024/01/17 04:07:37;;;;;;;10.30;4.72;;;;;;;3.40;54.93;99749.13;4966206;29;20051;-67
2024/01/17 04:10:06;;;;;;;8.20;4.45;;;;;;;3.40;55.76;99744.63;4964276;29;20058;-67
2024/01/17 04:12:35;;;;;;;7.75;4.38;;;;;;;3.39;55.80;99740.34;4965592;29;20114;-68
2024/01/17 04:15:02;;;;;;;9.82;5.13;;;;;;;3.38;55.84;99732.56;4964413;29;20050;-67
2024/01/17 04:17:30;;;;;;;11.13;4.80;;;;;;;3.39;55.23;99712.97;4965589;29;20146;-67
2024/01/17 04:19:58;;;;;;;10.43;4.97;;;;;;;3.38;55.20;99704.19;4964778;29;20104;-67
2024/01/17 04:22:26;;;;;;;10.57;4.97;;;;;;;3.37;55.96;99688.44;4964924;29;20107;-67
2024/01/17 04:24:55;;;;;;;9.55;4.70;;;;;;;3.37;55.15;99691.91;4965101;29;20039;-67
2024/01/17 04:27:23;;;;;;;8.43;4.60;;;;;;;3.38;55.15;99690.09;4963853;29;20051;-67
2024/01/17 04:29:51;;;;;;;10.25;4.45;;;;;;;3.36;55.89;99690.28;4965222;29;20047;-65
2024/01/17 04:32:19;;;;;;;10.60;4.65;;;;;;;3.34;55.34;99680.88;4960456;29;20055;-65
2024/01/17 04:34:47;;;;;;;7.63;4.38;;;;;;;3.36;55.21;99684.16;4965389;29;20043;-65
2024/01/17 04:37:14;;;;;;;9.20;4.63;;;;;;;3.35;55.03;99671.91;4965130;29;20465;-65
2024/01/17 04:39:43;;;;;;;7.55;4.93;;;;;;;3.34;55.62;99660.47;4953741;29;20052;-65
2024/01/17 04:42:12;;;;;;;8.57;4.93;;;;;;;3.33;55.77;99661.47;4965709;29;20055;-65
2024/01/17 04:44:40;;;;;;;12.32;5.15;;;;;;;3.33;54.84;99666.78;4956527;29;20046;-65
2024/01/17 04:47:08;;;;;;;10.50;4.22;;;;;;;3.31;55.58;99657.41;4961153;29;20067;-65
2024/01/17 04:49:35;;;;;;;10.57;4.40;;;;;;;3.30;55.32;99659.22;4958560;29;20106;-65
2024/01/17 04:52:04;;;;;;;10.80;4.95;;;;;;;3.28;55.75;99650.66;4965566;29;20469;-65
2024/01/17 04:54:32;;;;;;;11.13;5.25;;;;;;;3.28;55.00;99631.25;4962826;28;20047;-65
2024/01/17 04:57:00;;;;;;;8.30;5.35;;;;;;;3.29;55.53;99632.88;4964204;29;20075;-65
2024/01/17 04:59:29;;;;;;;9.02;5.25;;;;;;;3.24;55.19;99612.25;4965041;29;20074;-65
2024/01/17 05:01:57;;;;;;;9.35;4.40;;;;;;;3.27;55.09;99619.81;4964655;28;20047;-65
2024/01/17 05:04:25;;;;;;;11.50;4.85;;;;;;;3.25;55.63;99612.06;4957807;29;20051;-65
2024/01/17 05:06:53;;;;;;;9.10;5.07;;;;;;;3.23;54.90;99598.16;4960146;29;20049;-65
2024/01/17 05:09:21;;;;;;;9.35;4.88;;;;;;;3.24;54.79;99606.94;4964792;29;20081;-65
2024/01/17 05:11:49;;;;;;;10.93;5.03;;;;;;;3.24;54.91;99606.94;4965172;29;20059;-65
2024/01/17 05:14:17;;;;;;;9.90;5.13;;;;;;;3.22;55.65;99598.38;4963573;29;20046;-66
2024/01/17 05:16:46;;;;;;;10.00;5.78;;;;;;;3.23;55.16;99600.81;4964345;29;20047;-65
2024/01/17 05:19:16;;;;;;;9.23;4.97;;;;;;;3.21;54.98;99586.94;4964134;29;20051;-65
2024/01/17 05:21:45;;;;;;;9.20;5.05;;;;;;;3.23;54.89;99592.03;4965130;29;20085;-65
2024/01/17 05:24:12;;;;;;;7.70;4.85;;;;;;;3.21;55.58;99588.78;4962163;29;20110;-65
2024/01/17 05:26:40;;;;;;;9.13;5.60;;;;;;;3.21;55.27;99580.81;4964636;29;20054;-66
2024/01/17 05:29:08;;;;;;;8.48;5.20;;;;;;;3.20;55.72;99576.53;4959327;28;20043;-65
2024/01/17 05:31:36;;;;;;;11.40;5.05;;;;;;;3.18;55.82;99574.06;4963724;29;20055;-65
2024/01/17 05:34:05;;;;;;;11.50;5.50;;;;;;;3.18;54.92;99575.91;4965432;29;20050;-65
2024/01/17 05:36:33;;;;;;;10.82;5.95;;;;;;;3.18;54.92;99570.59;4962300;28;20043;-65
2024/01/17 05:39:03;;;;;;;11.52;6.15;;;;;;;3.16;55.69;99576.13;4966253;28;20047;-65
2024/01/17 05:41:31;;;;;;;10.20;5.22;;;;;;;3.15;55.18;99566.53;4963780;29;20065;-64
2024/01/17 05:43:59;;;;;;;14.93;5.90;;;;;;;3.16;54.81;99557.53;4964781;28;20056;-65
2024/01/17 05:46:26;;;;;;;10.15;5.20;;;;;;;3.15;55.21;99550.59;4966123;28;20067;-65
2024/01/17 05:48:54;;;;;;;12.05;6.22;;;;;;;3.14;55.34;99548.13;4960476;29;20400;-65
2024/01/17 05:51:24;;;;;;;8.48;4.78;;;;;;;3.13;55.60;99549.97;4964487;29;20083;-64
2024/01/17 05:53:51;;;;;;;13.13;5.35;;;;;;;3.12;55.41;99529.75;4963753;29;20167;-65
2024/01/17 05:56:19;;;;;;;12.07;5.90;;;;;;;3.03;55.33;99528.34;4962834;29;20071;-65
2024/01/17 05:58:47;;;;;;;11.38;6.57;;;;;;;3.11;55.09;99537.94;4963840;29;20055;-64
2024/01/17 06:01:15;;;;;;;9.20;5.80;;;;;;;3.12;55.20;99542.22;4963041;28;20055;-64
2024/01/17 06:03:43;;;;;;;8.93;5.55;;;;;;;3.16;55.75;99541.59;4964316;29;20106;-64
2024/01/17 06:06:11;;;;;;;12.30;6.53;;;;;;;3.26;55.19;99531.38;4961616;29;20054;-64
2024/01/17 06:08:40;;;;;;;10.32;5.47;;;;;;;3.31;54.33;99538.72;4967994;29;20073;-64
2024/01/17 06:11:11;;;;;;;10.05;5.88;;;;;;;3.34;54.85;99534.84;4968707;29;20055;-64
2024/01/17 06:13:39;;;;;;;9.55;5.03;;;;;;;3.31;55.20;99529.94;4965568;29;20047;-64
2024/01/17 06:16:07;;;;;;;8.93;5.28;;;;;;;3.31;55.11;99530.75;4954848;28;20243;-64
2024/01/17 06:18:35;;;;;;;12.38;5.75;;;;;;;3.27;54.69;99518.91;4966188;29;20087;-64
2024/01/17 06:21:03;;;;;;;10.88;6.18;;;;;;;3.32;54.42;99511.16;4968073;29;20075;-62
2024/01/17 06:23:31;;;;;;;9.63;5.30;;;;;;;3.43;54.90;99501.72;4968535;29;20066;-64
2024/01/17 06:26:00;;;;;;;9.38;4.75;;;;;;;3.56;53.83;99505.13;4961707;29;20183;-65
2024/01/17 06:28:28;;;;;;;10.80;4.93;;;;;;;3.72;53.76;99498.53;4966512;29;20058;-63
2024/01/17 06:30:56;;;;;;;11.30;5.43;;;;;;;3.88;52.94;99491.94;4966667;29;20134;-63
2024/01/17 06:33:24;;;;;;;10.32;5.28;;;;;;;4.03;52.43;99494.31;4966678;29;20053;-66
2024/01/17 06:35:52;;;;;;;9.27;4.63;;;;;;;4.17;52.75;99493.22;4965441;29;20048;-66
2024/01/17 06:38:20;;;;;;;8.25;4.93;;;;;;;4.28;52.28;99486.41;4967295;29;20083;-64
2024/01/17 06:40:47;;;;;;;10.73;5.05;;;;;;;4.41;51.61;99481.81;4966724;29;20075;-62
2024/01/17 06:43:17;;;;;;;11.10;5.32;;;;;;;4.47;51.28;99477.47;4967136;29;20051;-66
2024/01/17 06:45:45;;;;;;;10.85;5.65;;;;;;;4.60;50.98;99476.56;4964384;29;20439;-65
2024/01/17 06:48:13;;;;;;;13.65;5.28;;;;;;;4.68;51.04;99469.13;4945383;29;20059;-65
2024/01/17 06:50:40;;;;;;;8.77;5.25;;;;;;;4.66;50.72;99473.84;4948898;29;20059;-67
2024/01/17 06:53:08;;;;;;;11.13;5.80;;;;;;;4.55;51.03;99467.38;4947336;29;20066;-65
2024/01/17 06:55:36;;;;;;;11.98;5.30;;;;;;;4.38;51.02;99455.66;4602092;29;10000010;-65
2024/01/17 06:58:04;;;;;;;8.50;5.53;;;;;;;4.21;52.23;99463.31;4941606;29;20478;-65
2024/01/17 07:00:34;;;;;;;10.30;5.57;;;;;;;4.05;52.19;99450.53;4940052;29;20067;-64
2024/01/17 07:03:03;;;;;;;11.90;5.97;;;;;;;3.94;53.10;99445.91;4942995;29;20059;-65
2024/01/17 07:05:30;;;;;;;9.05;5.00;;;;;;;3.84;53.23;99445.56;4945292;29;20066;-64
2024/01/17 07:07:58;;;;;;;8.82;5.38;;;;;;;3.74;53.08;99437.22;4947605;29;20504;-66
2024/01/17 07:10:26;;;;;;;9.43;5.00;;;;;;;3.66;52.89;99419.69;4949698;29;20055;-66
2024/01/17 07:12:54;;;;;;;10.85;5.93;;;;;;;3.63;53.33;99425.41;4950142;29;20544;-66
2024/01/17 07:15:22;;;;;;;12.13;5.15;;;;;;;3.58;53.56;99419.91;4946418;29;20070;-66
2024/01/17 07:17:52;;;;;;;11.82;5.88;;;;;;;3.54;53.57;99414.22;4948016;28;20115;-66
2024/01/17 07:20:19;;;;;;;15.65;6.45;;;;;;;3.50;53.58;99409.53;4959018;29;20054;-66
2024/01/17 07:22:47;;;;;;;11.73;5.70;;;;;;;3.44;54.37;99402.44;4949406;29;20055;-66
2024/01/17 07:25:15;;;;;;;14.18;6.05;;;;;;;3.41;54.47;99405.53;4955539;29;20116;-66
2024/01/17 07:27:45;;;;;;;10.75;5.35;;;;;;;3.47;54.37;99405.47;4949885;29;20155;-66
2024/01/17 07:30:14;;;;;;;11.18;4.88;;;;;;;3.63;53.62;99406.00;4947427;29;20043;-66
2024/01/17 07:32:42;;;;;;;10.30;5.25;;;;;;;3.79;53.03;99395.69;4948788;29;20420;-66
2024/01/17 07:35:12;;;;;;;9.45;5.95;;;;;;;3.95;52.97;99385.59;4946642;29;20147;-66
2024/01/17 07:37:39;;;;;;;9.60;5.50;;;;;;;4.11;52.45;99379.75;4945649;29;20071;-63
2024/01/17 07:40:09;;;;;;;8.13;4.82;;;;;;;4.26;51.70;99369.63;4951139;29;20867;-65
2024/01/17 07:42:37;;;;;;;11.48;5.65;;;;;;;4.38;51.83;99367.06;4948329;29;20055;-65
2024/01/17 07:45:06;;;;;;;12.18;5.75;;;;;;;4.46;51.06;99356.97;4957351;29;20051;-65
2024/01/17 07:47:34;;;;;;;13.15;5.63;;;;;;;4.54;50.84;99353.19;4952021;29;20058;-64
2024/01/17 07:50:02;;;;;;;9.48;5.35;;;;;;;4.53;50.74;99346.25;4949381;29;20081;-65
2024/01/17 07:52:32;;;;;;;10.18;5.00;;;;;;;4.42;51.16;99342.47;4957413;29;20051;-63
2024/01/17 07:55:00;;;;;;;10.20;5.32;;;;;;;4.18;51.49;99319.38;4946731;29;20044;-64
2024/01/17 07:57:28;;;;;;;10.88;5.13;;;;;;;4.12;52.02;99334.34;4957911;29;20051;-65
2024/01/17 07:59:56;;;;;;;10.80;5.50;;;;;;;3.98;52.65;99324.03;4947083;29;20134;-65
2024/01/17 08:02:24;;;;;;;11.30;4.97;;;;;;;3.88;52.49;99320.00;4952088;29;20138;-64
2024/01/17 08:04:53;;;;;;;8.35;4.85;;;;;;;3.81;53.47;99307.81;4952190;29;20498;-65
2024/01/17 08:07:24;;;;;;;11.40;5.10;;;;;;;3.75;52.99;99306.00;4951070;29;20055;-65
2024/01/17 08:09:54;;;;;;;9.70;5.82;;;;;;;3.67;53.66;99298.28;4945754;29;20070;-64
2024/01/17 08:12:24;;;;;;;10.10;5.65;;;;;;;3.64;53.16;99306.69;4952863;29;20049;-65
2024/01/17 08:14:52;;;;;;;10.43;5.40;;;;;;;3.62;53.59;99304.25;4948833;29;20063;-65
2024/01/17 08:17:20;;;;;;;8.70;5.80;;;;;;;3.74;53.17;99301.72;4956705;29;20549;-64
2024/01/17 08:19:49;;;;;;;11.10;5.65;;;;;;;3.88;53.22;99304.06;4946655;29;20051;-64
2024/01/17 08:22:17;;;;;;;10.05;4.93;;;;;;;4.04;52.60;99304.56;4952915;29;20134;-65
2024/01/17 08:24:45;;;;;;;12.40;5.50;;;;;;;4.21;52.33;99300.31;4959703;29;20122;-65
2024/01/17 08:27:14;;;;;;;9.82;5.22;;;;;;;4.35;51.26;99299.16;4948521;29;20066;-65
2024/01/17 08:29:45;;;;;;;10.75;6.00;;;;;;;4.48;51.40;99290.25;4947860;28;20075;-63
2024/01/17 08:32:13;;;;;;;7.97;4.95;;;;;;;4.62;50.56;99290.91;4958634;29;20047;-63
2024/01/17 08:34:41;;;;;;;11.90;5.88;;;;;;;4.68;50.75;99292.69;4947936;29;20058;-64
2024/01/17 08:37:09;;;;;;;9.65;5.35;;;;;;;4.78;50.47;99277.81;4948116;29;20123;-64
2024/01/17 08:39:36;;;;;;;8.90;4.88;;;;;;;4.87;50.36;99273.81;4954833;29;20114;-64
2024/01/17 08:42:04;;;;;;;12.38;5.47;;;;;;;4.97;49.93;99262.66;4957455;29;20059;-65
2024/01/17 08:44:34;;;;;;;10.35;5.55;;;;;;;5.00;50.01;99256.88;4947682;29;20055;-64
2024/01/17 08:47:02;;;;;;;8.48;5.10;;;;;;;5.01;49.76;99253.19;4958406;28;20078;-64
2024/01/17 08:49:30;;;;;;;7.22;4.68;;;;;;;4.94;49.72;99249.78;4957000;29;20083;-64
2024/01/17 08:51:59;;;;;;;12.23;6.03;;;;;;;4.84;50.04;99239.69;4961050;29;20047;-64
2024/01/17 08:54:27;;;;;;;8.55;4.82;;;;;;;4.68;50.86;99240.28;4955969;29;20397;-65
2024/01/17 08:56:54;;;;;;;10.25;5.57;;;;;;;4.50;50.88;99235.78;4953123;29;20051;-65
2024/01/17 08:59:22;;;;;;;14.18;5.75;;;;;;;4.35;51.99;99229.19;4957806;29;20380;-64
2024/01/17 09:01:52;;;;;;;9.65;5.18;;;;;;;4.24;51.87;99217.44;4953098;29;20055;-64
2024/01/17 09:04:20;;;;;;;8.63;5.45;;;;;;;4.39;51.80;99219.75;4957374;29;20084;-65
2024/01/17 09:06:48;;;;;;;12.45;5.65;;;;;;;4.47;51.76;99211.47;4954962;29;20055;-64
2024/01/17 09:09:16;;;;;;;10.77;5.50;;;;;;;4.60;50.91;99206.00;4955290;29;20083;-64
2024/01/17 09:11:44;;;;;;;12.40;5.00;;;;;;;4.71;50.63;99199.09;4944913;29;20071;-64
2024/01/17 09:14:12;;;;;;;8.50;5.32;;;;;;;4.81;50.32;99196.72;4954622;29;20051;-64
2024/01/17 09:16:40;;;;;;;10.05;6.43;;;;;;;4.93;50.39;99192.25;4951598;29;20050;-65
2024/01/17 09:19:10;;;;;;;11.75;4.90;;;;;;;5.01;50.14;99188.47;4960752;29;20410;-65
2024/01/17 09:21:38;;;;;;;13.40;6.03;;;;;;;5.10;49.49;99200.44;4955266;29;20071;-64
2024/01/17 09:24:06;;;;;;;7.50;4.95;;;;;;;5.15;49.59;99192.56;4946315;29;20110;-65
2024/01/17 09:26:34;;;;;;;10.05;5.05;;;;;;;5.18;49.58;99189.47;4945725;29;20166;-64
2024/01/17 09:29:03;;;;;;;10.90;5.18;;;;;;;5.18;49.57;99190.28;4945754;29;20493;-65
2024/01/17 09:31:31;;;;;;;9.40;5.57;;;;;;;5.19;49.44;99188.41;4947116;29;20059;-64
2024/01/17 09:33:58;;;;;;;12.18;6.20;;;;;;;5.21;49.32;99192.44;4948861;29;20052;-64
2024/01/17 09:36:28;;;;;;;13.90;5.70;;;;;;;5.23;49.52;99173.56;4951185;29;20071;-64
2024/01/17 09:38:57;;;;;;;9.32;5.50;;;;;;;5.23;49.42;99173.56;4946485;29;20051;-64
2024/01/17 09:41:25;;;;;;;11.65;6.25;;;;;;;5.22;49.24;99175.44;4950235;29;20460;-64
2024/01/17 09:43:54;;;;;;;8.20;5.38;;;;;;;5.26;49.31;99180.28;4947187;29;20484;-65
2024/01/17 09:46:22;;;;;;;8.98;5.68;;;;;;;5.20;49.40;99166.84;4949152;29;20061;-65
2024/01/17 09:48:51;;;;;;;14.27;6.28;;;;;;;5.22;49.28;99175.44;4948576;29;20052;-64
2024/01/17 09:51:24;;;;;;;11.48;5.85;;;;;;;5.19;49.32;99178.56;4952183;29;20052;-65
2024/01/17 09:53:59;;;;;;;10.50;5.68;;;;;;;5.04;49.92;99172.84;4956036;28;20048;-65
2024/01/17 09:56:30;;;;;;;10.95;6.07;;;;;;;4.84;50.06;99170.47;4956917;29;20062;-64
2024/01/17 09:59:03;;;;;;;10.85;5.95;;;;;;;4.66;50.45;99175.84;4615539;29;10000730;-65
2024/01/17 10:01:32;;;;;;;11.48;5.88;;;;;;;4.47;51.18;99171.56;4953374;29;20550;-65
2024/01/17 10:04:01;;;;;;;11.23;6.40;;;;;;;4.35;51.56;99162.72;4955823;29;20138;-65
2024/01/17 10:06:30;;;;;;;12.55;5.97;;;;;;;4.28;51.88;99169.97;4950889;29;20079;-65
2024/01/17 10:09:01;;;;;;;10.90;6.25;;;;;;;4.19;51.55;99166.78;4951991;29;20047;-65
2024/01/17 10:11:29;;;;;;;11.15;6.63;;;;;;;4.14;51.99;99154.16;4954632;29;20115;-65
2024/01/17 10:13:57;;;;;;;11.07;6.28;;;;;;;4.06;52.42;99150.97;4959495;29;20066;-65
2024/01/17 10:16:27;;;;;;;9.35;6.53;;;;;;;4.01;52.92;99156.16;4949404;28;20083;-65
2024/01/17 10:18:58;;;;;;;12.18;6.53;;;;;;;4.04;52.78;99150.38;4953734;29;20043;-65
2024/01/17 10:21:26;;;;;;;9.63;5.60;;;;;;;4.19;51.80;99159.63;4956855;29;20576;-65
2024/01/17 10:23:54;;;;;;;10.02;6.07;;;;;;;4.33;52.28;99133.69;4954482;28;20052;-65
2024/01/17 10:26:23;;;;;;;10.50;6.07;;;;;;;4.48;51.63;99139.44;4951528;29;20122;-65
2024/01/17 10:28:52;;;;;;;16.30;6.80;;;;;;;4.62;51.04;99139.25;4953324;28;20063;-65
2024/01/17 10:31:20;;;;;;;11.00;5.70;;;;;;;4.82;50.58;99145.13;4953468;29;20047;-65
2024/01/17 10:33:50;;;;;;;12.65;6.80;;;;;;;4.96;50.23;99143.09;4948251;29;20079;-65
2024/01/17 10:36:18;;;;;;;13.35;6.68;;;;;;;5.08;50.00;99138.59;4962042;28;20055;-65
2024/01/17 10:38:47;;;;;;;13.80;6.65;;;;;;;5.22;49.51;99132.00;4953290;29;20103;-65
2024/01/17 10:41:15;;;;;;;11.95;6.60;;;;;;;5.29;49.56;99127.38;4954714;29;20066;-65
2024/01/17 10:43:57;;;;;;;13.30;7.90;;;;;;;5.32;49.55;99118.13;4962127;29;20099;-65
2024/01/17 10:46:26;;;;;;;11.25;6.82;;;;;;;5.43;49.37;99122.66;4950739;29;20051;-65
2024/01/17 10:48:56;;;;;;;11.60;6.05;;;;;;;5.45;49.38;99112.56;4953787;29;20567;-65
2024/01/17 10:51:25;;;;;;;10.23;5.68;;;;;;;5.46;49.22;99103.53;4948184;29;20083;-65
2024/01/17 10:53:54;;;;;;;13.75;7.50;;;;;;;5.49;49.22;99101.22;4947803;29;20083;-65
2024/01/17 10:56:27;;;;;;;9.80;6.47;;;;;;;5.40;49.41;99086.63;4950434;29;20102;-65
2024/01/17 10:58:57;;;;;;;12.82;6.35;;;;;;;5.29;49.70;99086.63;4948897;29;20080;-65
2024/01/17 11:01:26;;;;;;;9.27;6.32;;;;;;;5.08;50.22;99080.03;4947238;29;20561;-65
2024/01/17 11:03:56;;;;;;;10.65;6.93;;;;;;;4.88;50.47;99077.69;4959379;29;20050;-65
2024/01/17 11:06:25;;;;;;;11.98;7.07;;;;;;;4.73;50.92;99080.75;4951498;29;20055;-65
2024/01/17 11:08:54;;;;;;;11.30;7.18;;;;;;;4.61;51.70;99082.56;4948351;29;20382;-65
2024/01/17 11:11:24;;;;;;;12.70;7.30;;;;;;;4.49;51.88;99084.38;4951440;29;20130;-65
2024/01/17 11:13:54;;;;;;;12.45;7.25;;;;;;;4.42;52.18;99076.50;4963634;29;20080;-65
2024/01/17 11:16:25;;;;;;;12.15;6.97;;;;;;;4.37;52.48;99078.22;4952180;29;20060;-64
2024/01/17 11:18:54;;;;;;;10.43;6.20;;;;;;;4.32;52.00;99078.06;4959458;29;20062;-64
2024/01/17 11:21:24;;;;;;;10.00;6.18;;;;;;;4.28;51.96;99077.69;4954948;29;20078;-65
2024/01/17 11:24:01;;;;;;;13.85;6.97;;;;;;;4.22;52.33;99066.13;4960514;29;20398;-65
2024/01/17 11:26:31;;;;;;;;;;;;;;;4.17;52.89;99062.50;4955808;29;20131;-66
2024/01/17 11:29:09;;;;;;;12.95;7.32;;;;;;;4.15;53.19;99062.72;4948870;29;19923;-65
2024/01/17 11:31:48;;;;;;;9.13;6.60;;;;;;;4.29;52.25;99049.25;4948834;29;20079;-66
2024/01/17 11:34:18;;;;;;;14.15;7.30;;;;;;;4.46;52.20;99042.28;4952466;29;20059;-66
2024/01/17 11:36:48;;;;;;;14.15;7.57;;;;;;;4.63;51.74;99043.25;4955327;29;20058;-66
2024/01/17 11:39:17;;;;;;;12.57;7.55;;;;;;;4.75;51.33;99040.63;4951366;29;20050;-65